Nearby METAR Reports

 

EGQL - Leuchars Raf, United Kingdom
Distance from station: SW 11mi, 17km
Updated: 26/09/2018 12:50
Mostly cloudy
Mostly cloudy
 Wind from WSW
Wind: WSW 25 mph , 41 km/h
Temperature: 19°C
Dew Point: 15°C
Humidity: 78%
Barometer: 1021 hPa
Clouds: Mostly cloudy
Visibility: 6 miles , 10 km
Cloud details: Few Clouds 549 m
Mostly cloudy 732 m
2018/09/26 11:50 EGQL 261150Z 25022KT 9999 FEW018 BKN024 19/15 Q1021 WHT
EGPN - Dundee/Riverside, United Kingdom
Distance from station: WSW 13mi, 20km
Updated: 26/09/2018 13:50
Partly cloudy
Partly cloudy
 Wind from W
Wind: W 23 mph , 37 km/h
Temperature: 18°C
Dew Point: 14°C
Humidity: 78%
Barometer: 1021 hPa
Clouds: Partly cloudy
Visibility: 6 miles , 10 km
Cloud details: Few Clouds 610 m
Partly cloudy 914 m
2018/09/26 12:50 EGPN 261250Z 26020KT 9999 FEW020 SCT030 18/14 Q1021
 
EGPH - Edinburgh Airpor, United Kingdom
Distance from station: SSW 46mi, 74km
Updated: 26/09/2018 13:50
Mostly cloudy
Mostly cloudy
 Wind from WSW
Wind: WSW 20 mph , 31 km/h, Gust: 31 mph , 50 km/h
Temperature: 17°C
Dew Point: 15°C
Humidity: 88%
Barometer: 1023 hPa
Clouds: Mostly cloudy
Visibility: 6 miles , 10 km
Cloud details: Mostly cloudy 396 m
2018/09/26 12:50 EGPH 261250Z 25017G27KT 9999 BKN013 17/15 Q1023
EGPD - Aberdeen/Dyce, United Kingdom
Distance from station: NNE 51mi, 82km
Updated: 26/09/2018 13:50
Overcast
Overcast
 Wind from W
Wind: W 12 mph , 19 km/h
Temperature: 19°C
Dew Point: 14°C
Humidity: 73%
Barometer: 1019 hPa
Clouds: Overcast
Visibility: 6 miles , 10 km
Cloud details: Mostly cloudy 975 m
Mostly cloudy 1158 m
Overcast 1402 m
2018/09/26 12:50 EGPD 261250Z AUTO 28010KT 240V330 9999 BKN032 BKN038 OVC046 19/14 Q1019 NOSIG